BAW237 EGLL-EDDH
Flight info
| Callsign | BAW237 |
|---|---|
| Flight time | N/A |
| Altitude | 39000 |
| Route | BPK Q295 SOMVA DCT MAVAS DCT VALAM DCT GASTU DCT OSTOR T904 RIBSO RIBSO3P |
| Aircraft | A20N/M-SDE2E3FGHIRWXY/LB1 |
Departure
| Time | N/A |
|---|---|
| Airport | London Heathrow Airport (EGLL) |
Arrival
| Time | 2026-04-24 19:46 |
|---|---|
| Airport | Hamburg Helmut Schmidt Airport (EDDH) |
| Time | Latitude | Longitude | Altitude | Speed | Heading |
|---|---|---|---|---|---|
| 2026-04-24 18:54 | 52.43835 | 3.09592 | 39276 ft | 478 kts | 64° |
| 2026-04-24 18:55 | 52.47886 | 3.24530 | 39282 ft | 478 kts | 64° |
| 2026-04-24 18:56 | 52.50565 | 3.34460 | 39285 ft | 480 kts | 64° |
| 2026-04-24 18:56 | 52.53260 | 3.44493 | 39293 ft | 481 kts | 64° |
| 2026-04-24 18:57 | 52.55947 | 3.54540 | 39282 ft | 480 kts | 64° |
| 2026-04-24 18:57 | 52.58624 | 3.64594 | 39276 ft | 480 kts | 64° |
| 2026-04-24 18:58 | 52.61292 | 3.74661 | 39274 ft | 480 kts | 64° |
| 2026-04-24 18:58 | 52.63953 | 3.84742 | 39271 ft | 480 kts | 64° |
| 2026-04-24 18:59 | 52.66605 | 3.94835 | 39271 ft | 480 kts | 65° |
| 2026-04-24 18:59 | 52.69248 | 4.04942 | 39269 ft | 480 kts | 64° |
| 2026-04-24 19:00 | 52.71883 | 4.15061 | 39271 ft | 480 kts | 65° |
| 2026-04-24 19:00 | 52.74509 | 4.25192 | 39265 ft | 480 kts | 65° |
| 2026-04-24 19:01 | 52.77126 | 4.35331 | 39264 ft | 480 kts | 65° |
| 2026-04-24 19:01 | 52.79735 | 4.45486 | 39260 ft | 480 kts | 65° |
| 2026-04-24 19:02 | 52.81896 | 4.53931 | 39262 ft | 480 kts | 65° |
| 2026-04-24 19:02 | 52.84925 | 4.65823 | 39259 ft | 480 kts | 65° |
| 2026-04-24 19:03 | 52.87485 | 4.75926 | 39263 ft | 480 kts | 65° |
| 2026-04-24 19:03 | 52.90058 | 4.86126 | 39263 ft | 480 kts | 65° |
| 2026-04-24 19:04 | 52.92622 | 4.96330 | 39265 ft | 477 kts | 65° |
| 2026-04-24 19:04 | 52.95161 | 5.06490 | 39262 ft | 477 kts | 65° |
| 2026-04-24 19:05 | 52.97700 | 5.16694 | 39262 ft | 479 kts | 65° |
| 2026-04-24 19:05 | 53.00233 | 5.26920 | 39260 ft | 479 kts | 66° |
| 2026-04-24 19:06 | 53.02758 | 5.37145 | 39261 ft | 479 kts | 66° |
| 2026-04-24 19:06 | 53.05261 | 5.47394 | 39257 ft | 479 kts | 66° |
| 2026-04-24 19:07 | 53.07747 | 5.57662 | 39259 ft | 479 kts | 66° |
| 2026-04-24 19:07 | 53.09810 | 5.66197 | 39266 ft | 478 kts | 66° |
| 2026-04-24 19:08 | 53.12701 | 5.78210 | 39262 ft | 477 kts | 66° |
| 2026-04-24 19:08 | 53.14737 | 5.86715 | 39264 ft | 476 kts | 66° |
| 2026-04-24 19:09 | 53.17578 | 5.98640 | 39260 ft | 476 kts | 66° |
| 2026-04-24 19:09 | 53.20012 | 6.08905 | 39260 ft | 476 kts | 66° |
| 2026-04-24 19:10 | 53.22044 | 6.17516 | 39249 ft | 476 kts | 66° |
| 2026-04-24 19:10 | 53.24462 | 6.27806 | 39249 ft | 477 kts | 66° |
| 2026-04-24 19:11 | 53.26860 | 6.38058 | 39247 ft | 477 kts | 66° |
| 2026-04-24 19:11 | 53.29280 | 6.48456 | 39248 ft | 477 kts | 67° |
| 2026-04-24 19:12 | 53.31662 | 6.58742 | 39243 ft | 477 kts | 67° |
| 2026-04-24 19:12 | 53.34051 | 6.69106 | 39230 ft | 478 kts | 67° |
| 2026-04-24 19:13 | 53.36030 | 6.77794 | 39079 ft | 476 kts | 70° |
| 2026-04-24 19:13 | 53.37371 | 6.84801 | 38164 ft | 480 kts | 70° |
| 2026-04-24 19:13 | 53.38411 | 6.90161 | 37090 ft | 488 kts | 70° |
| 2026-04-24 19:13 | 53.39463 | 6.95629 | 35875 ft | 500 kts | 71° |
| 2026-04-24 19:14 | 53.40531 | 7.01252 | 34662 ft | 512 kts | 71° |
| 2026-04-24 19:14 | 53.41604 | 7.06976 | 33711 ft | 517 kts | 71° |
| 2026-04-24 19:14 | 53.42671 | 7.12718 | 32961 ft | 514 kts | 72° |
| 2026-04-24 19:14 | 53.43724 | 7.18412 | 32380 ft | 508 kts | 72° |
| 2026-04-24 19:15 | 53.44759 | 7.24028 | 31796 ft | 502 kts | 72° |
| 2026-04-24 19:15 | 53.45782 | 7.29596 | 31247 ft | 496 kts | 72° |
| 2026-04-24 19:15 | 53.46795 | 7.35119 | 30716 ft | 495 kts | 72° |
| 2026-04-24 19:15 | 53.47804 | 7.40638 | 30222 ft | 493 kts | 72° |
| 2026-04-24 19:16 | 53.49789 | 7.51541 | 29081 ft | 482 kts | 72° |
| 2026-04-24 19:16 | 53.50757 | 7.56884 | 28556 ft | 475 kts | 72° |
| 2026-04-24 19:16 | 53.51710 | 7.62157 | 28014 ft | 467 kts | 72° |
| 2026-04-24 19:17 | 53.52644 | 7.67345 | 27490 ft | 460 kts | 72° |
| 2026-04-24 19:17 | 53.53562 | 7.72451 | 26969 ft | 453 kts | 72° |
| 2026-04-24 19:17 | 53.54464 | 7.77487 | 26463 ft | 448 kts | 72° |
| 2026-04-24 19:17 | 53.55362 | 7.82507 | 25962 ft | 449 kts | 72° |
| 2026-04-24 19:18 | 53.56259 | 7.87535 | 25467 ft | 447 kts | 72° |
| 2026-04-24 19:18 | 53.57146 | 7.92531 | 24985 ft | 443 kts | 72° |
| 2026-04-24 19:18 | 53.58019 | 7.97458 | 24504 ft | 437 kts | 72° |
| 2026-04-24 19:18 | 53.58882 | 8.02337 | 24040 ft | 434 kts | 72° |
| 2026-04-24 19:19 | 53.59738 | 8.07195 | 23568 ft | 432 kts | 72° |
| 2026-04-24 19:19 | 53.60586 | 8.12019 | 23046 ft | 428 kts | 72° |
| 2026-04-24 19:19 | 53.61412 | 8.16734 | 22542 ft | 423 kts | 72° |
| 2026-04-24 19:19 | 53.62240 | 8.21471 | 22039 ft | 420 kts | 72° |
| 2026-04-24 19:20 | 53.63059 | 8.26169 | 21546 ft | 416 kts | 72° |
| 2026-04-24 19:20 | 53.63870 | 8.30832 | 21069 ft | 413 kts | 72° |
| 2026-04-24 19:20 | 53.64672 | 8.35458 | 20587 ft | 410 kts | 72° |
| 2026-04-24 19:20 | 53.65470 | 8.40066 | 20117 ft | 408 kts | 72° |
| 2026-04-24 19:21 | 53.66258 | 8.44632 | 19663 ft | 404 kts | 72° |
| 2026-04-24 19:21 | 53.67037 | 8.49158 | 19204 ft | 401 kts | 72° |
| 2026-04-24 19:21 | 53.67810 | 8.53665 | 18760 ft | 398 kts | 71° |
| 2026-04-24 19:21 | 53.68574 | 8.58125 | 18290 ft | 395 kts | 71° |
| 2026-04-24 19:22 | 53.69086 | 8.61121 | 17954 ft | 392 kts | 71° |
| 2026-04-24 19:22 | 53.70075 | 8.66928 | 17289 ft | 385 kts | 71° |
| 2026-04-24 19:22 | 53.70812 | 8.71260 | 16799 ft | 385 kts | 71° |
| 2026-04-24 19:22 | 53.71547 | 8.75596 | 16310 ft | 382 kts | 71° |
| 2026-04-24 19:23 | 53.72272 | 8.79882 | 15837 ft | 377 kts | 71° |
| 2026-04-24 19:23 | 53.72989 | 8.84130 | 15360 ft | 375 kts | 71° |
| 2026-04-24 19:23 | 53.73700 | 8.88359 | 14833 ft | 373 kts | 71° |
| 2026-04-24 19:23 | 53.74405 | 8.92565 | 14267 ft | 372 kts | 71° |
| 2026-04-24 19:24 | 53.75106 | 8.96754 | 13726 ft | 369 kts | 71° |
| 2026-04-24 19:24 | 53.75799 | 9.00907 | 13196 ft | 365 kts | 71° |
| 2026-04-24 19:24 | 53.76484 | 9.05020 | 12675 ft | 362 kts | 70° |
| 2026-04-24 19:24 | 53.77160 | 9.09088 | 12155 ft | 358 kts | 70° |
| 2026-04-24 19:25 | 53.77829 | 9.13126 | 11650 ft | 355 kts | 70° |
| 2026-04-24 19:25 | 53.78491 | 9.17123 | 11137 ft | 352 kts | 70° |
| 2026-04-24 19:25 | 53.79145 | 9.21084 | 10678 ft | 348 kts | 70° |
| 2026-04-24 19:25 | 53.79780 | 9.24948 | 10520 ft | 333 kts | 70° |
| 2026-04-24 19:26 | 53.80386 | 9.28649 | 10391 ft | 320 kts | 70° |
| 2026-04-24 19:26 | 53.80960 | 9.32154 | 10276 ft | 307 kts | 69° |
| 2026-04-24 19:26 | 53.81448 | 9.35605 | 10160 ft | 297 kts | 74° |
| 2026-04-24 19:26 | 53.81853 | 9.39073 | 10157 ft | 304 kts | 73° |
| 2026-04-24 19:27 | 53.82287 | 9.42557 | 10152 ft | 302 kts | 73° |
| 2026-04-24 19:27 | 53.82720 | 9.46030 | 10157 ft | 302 kts | 72° |
| 2026-04-24 19:27 | 53.83148 | 9.49500 | 10151 ft | 301 kts | 73° |
| 2026-04-24 19:27 | 53.83573 | 9.52976 | 10150 ft | 301 kts | 73° |
| 2026-04-24 19:28 | 53.83993 | 9.56444 | 10147 ft | 301 kts | 73° |
| 2026-04-24 19:28 | 53.84411 | 9.59919 | 10146 ft | 301 kts | 73° |
| 2026-04-24 19:28 | 53.84828 | 9.63399 | 10144 ft | 302 kts | 73° |
| 2026-04-24 19:28 | 53.85243 | 9.66880 | 10142 ft | 301 kts | 73° |
| 2026-04-24 19:29 | 53.86075 | 9.73865 | 10137 ft | 304 kts | 73° |
| 2026-04-24 19:29 | 53.86488 | 9.77377 | 10136 ft | 304 kts | 75° |
| 2026-04-24 19:29 | 53.86649 | 9.80974 | 10135 ft | 309 kts | 87° |
| 2026-04-24 19:30 | 53.86430 | 9.84594 | 10100 ft | 307 kts | 92° |
| 2026-04-24 19:30 | 53.86165 | 9.88128 | 10009 ft | 296 kts | 92° |
| 2026-04-24 19:30 | 53.85920 | 9.91490 | 9848 ft | 280 kts | 92° |
| 2026-04-24 19:30 | 53.85690 | 9.94726 | 9503 ft | 275 kts | 91° |
| 2026-04-24 19:31 | 53.85466 | 9.97927 | 9174 ft | 273 kts | 91° |
| 2026-04-24 19:31 | 53.85243 | 10.01113 | 8836 ft | 271 kts | 92° |
| 2026-04-24 19:31 | 53.85020 | 10.04276 | 8526 ft | 270 kts | 92° |
| 2026-04-24 19:31 | 53.84796 | 10.07417 | 8210 ft | 268 kts | 92° |
| 2026-04-24 19:32 | 53.84572 | 10.10535 | 7887 ft | 265 kts | 92° |
| 2026-04-24 19:32 | 53.84349 | 10.13630 | 7493 ft | 264 kts | 92° |
| 2026-04-24 19:32 | 53.84129 | 10.16705 | 7110 ft | 262 kts | 91° |
| 2026-04-24 19:32 | 53.84318 | 10.19628 | 6728 ft | 249 kts | 62° |
| 2026-04-24 19:33 | 53.85241 | 10.21991 | 6343 ft | 238 kts | 44° |
| 2026-04-24 19:33 | 53.86314 | 10.24121 | 5938 ft | 238 kts | 43° |
| 2026-04-24 19:33 | 53.87383 | 10.26247 | 5554 ft | 236 kts | 43° |
| 2026-04-24 19:33 | 53.88435 | 10.28362 | 5211 ft | 234 kts | 44° |
| 2026-04-24 19:34 | 53.89482 | 10.30476 | 4823 ft | 234 kts | 44° |
| 2026-04-24 19:34 | 53.90516 | 10.32576 | 4463 ft | 231 kts | 44° |
| 2026-04-24 19:34 | 53.91539 | 10.34662 | 4138 ft | 228 kts | 44° |
| 2026-04-24 19:34 | 53.92544 | 10.36713 | 3983 ft | 228 kts | 44° |
| 2026-04-24 19:35 | 53.93564 | 10.38788 | 3950 ft | 227 kts | 43° |
| 2026-04-24 19:35 | 53.94574 | 10.40849 | 3952 ft | 227 kts | 43° |
| 2026-04-24 19:35 | 53.95435 | 10.43121 | 3962 ft | 237 kts | 65° |
| 2026-04-24 19:35 | 53.95551 | 10.45965 | 3952 ft | 251 kts | 97° |
| 2026-04-24 19:36 | 53.94791 | 10.48664 | 3946 ft | 260 kts | 128° |
| 2026-04-24 19:36 | 53.93453 | 10.50742 | 3946 ft | 262 kts | 143° |
| 2026-04-24 19:36 | 53.91898 | 10.52293 | 3946 ft | 257 kts | 165° |
| 2026-04-24 19:36 | 53.90212 | 10.52487 | 3944 ft | 232 kts | 199° |
| 2026-04-24 19:37 | 53.88886 | 10.51354 | 3968 ft | 199 kts | 229° |
| 2026-04-24 19:37 | 53.88034 | 10.49620 | 3948 ft | 193 kts | 241° |
| 2026-04-24 19:37 | 53.87213 | 10.47854 | 3950 ft | 193 kts | 239° |
| 2026-04-24 19:37 | 53.86347 | 10.46078 | 3948 ft | 193 kts | 238° |
| 2026-04-24 19:38 | 53.85496 | 10.44357 | 3949 ft | 193 kts | 238° |
| 2026-04-24 19:38 | 53.84634 | 10.42617 | 3951 ft | 193 kts | 238° |
| 2026-04-24 19:38 | 53.83772 | 10.40872 | 3951 ft | 191 kts | 238° |
| 2026-04-24 19:38 | 53.82960 | 10.39256 | 3963 ft | 171 kts | 239° |
| 2026-04-24 19:39 | 53.82192 | 10.37706 | 3951 ft | 172 kts | 239° |
| 2026-04-24 19:39 | 53.81424 | 10.36140 | 3948 ft | 173 kts | 239° |
| 2026-04-24 19:39 | 53.80648 | 10.34582 | 3956 ft | 172 kts | 238° |
| 2026-04-24 19:39 | 53.79873 | 10.33035 | 3949 ft | 174 kts | 238° |
| 2026-04-24 19:40 | 53.79090 | 10.31466 | 3960 ft | 173 kts | 238° |
| 2026-04-24 19:40 | 53.78317 | 10.29915 | 3977 ft | 173 kts | 239° |
| 2026-04-24 19:40 | 53.77538 | 10.28347 | 3973 ft | 174 kts | 239° |
| 2026-04-24 19:40 | 53.76769 | 10.26778 | 3972 ft | 173 kts | 240° |
| 2026-04-24 19:41 | 53.76004 | 10.25191 | 3942 ft | 175 kts | 239° |
| 2026-04-24 19:41 | 53.75233 | 10.23615 | 3716 ft | 173 kts | 239° |
| 2026-04-24 19:41 | 53.74468 | 10.22055 | 3474 ft | 171 kts | 239° |
| 2026-04-24 19:41 | 53.73707 | 10.20501 | 3235 ft | 172 kts | 240° |
| 2026-04-24 19:42 | 53.72941 | 10.18943 | 2999 ft | 172 kts | 239° |
| 2026-04-24 19:42 | 53.72183 | 10.17400 | 2765 ft | 170 kts | 239° |
| 2026-04-24 19:42 | 53.71440 | 10.15886 | 2545 ft | 170 kts | 239° |
| 2026-04-24 19:42 | 53.70685 | 10.14353 | 2298 ft | 165 kts | 238° |
| 2026-04-24 19:43 | 53.69972 | 10.12901 | 2080 ft | 161 kts | 238° |
| 2026-04-24 19:43 | 53.69262 | 10.11458 | 1858 ft | 158 kts | 238° |
| 2026-04-24 19:43 | 53.68601 | 10.10125 | 1644 ft | 138 kts | 239° |
| 2026-04-24 19:43 | 53.68016 | 10.08934 | 1462 ft | 126 kts | 239° |
| 2026-04-24 19:44 | 53.67468 | 10.07810 | 1298 ft | 125 kts | 240° |
| 2026-04-24 19:44 | 53.66911 | 10.06675 | 1117 ft | 126 kts | 239° |
| 2026-04-24 19:44 | 53.66350 | 10.05538 | 937 ft | 124 kts | 237° |
| 2026-04-24 19:44 | 53.65811 | 10.04445 | 767 ft | 123 kts | 237° |
| 2026-04-24 19:45 | 53.65263 | 10.03330 | 598 ft | 124 kts | 237° |
| 2026-04-24 19:45 | 53.64718 | 10.02232 | 432 ft | 117 kts | 237° |
| 2026-04-24 19:45 | 53.64200 | 10.01189 | 301 ft | 118 kts | 237° |
| 2026-04-24 19:45 | 53.63679 | 10.00122 | 134 ft | 115 kts | 237° |
| 2026-04-24 19:46 | 53.63171 | 9.99100 | 47 ft | 107 kts | 237° |
| 2026-04-24 19:46 | 53.62782 | 9.98270 | 43 ft | 64 kts | 229° |
| 2026-04-24 19:46 | 53.62584 | 9.97898 | 41 ft | 38 kts | 230° |
| 2026-04-24 19:46 | 53.62435 | 9.97859 | 44 ft | 16 kts | 118° |
| 2026-04-24 19:47 | 53.62447 | 9.98045 | 46 ft | 17 kts | 66° |
| 2026-04-24 19:47 | 53.62527 | 9.98222 | 46 ft | 21 kts | 49° |
| 2026-04-24 19:47 | 53.62629 | 9.98421 | 46 ft | 24 kts | 49° |
| 2026-04-24 19:47 | 53.62732 | 9.98638 | 46 ft | 24 kts | 51° |
| 2026-04-24 19:48 | 53.62824 | 9.98826 | 46 ft | 20 kts | 49° |
| 2026-04-24 19:48 | 53.62919 | 9.99014 | 46 ft | 22 kts | 49° |
| 2026-04-24 19:48 | 53.63091 | 9.99383 | 46 ft | 19 kts | 54° |
| 2026-04-24 19:49 | 53.63214 | 9.99656 | 48 ft | 0 kts | 50° |
| 2026-04-24 19:49 | 53.63223 | 9.99680 | 48 ft | 4 kts | 62° |
| 2026-04-24 19:50 | 53.63115 | 9.99892 | 48 ft | 13 kts | 154° |
| 2026-04-24 19:50 | 53.63035 | 9.99958 | 48 ft | 11 kts | 153° |
| 2026-04-24 19:51 | 53.62988 | 9.99976 | 46 ft | 6 kts | 179° |
| 2026-04-24 19:51 | 53.62965 | 9.99988 | 48 ft | 0 kts | 153° |
| 2026-04-24 19:52 | 53.62957 | 10.00060 | 48 ft | 6 kts | 60° |
| 2026-04-24 19:52 | 53.62992 | 10.00108 | 48 ft | 0 kts | 37° |
| 2026-04-24 19:52 | 53.62992 | 10.00109 | 48 ft | 0 kts | 45° |
| 2026-04-24 19:52 | 53.62987 | 10.00124 | 48 ft | 3 kts | 123° |
| 2026-04-24 19:53 | 53.62956 | 10.00177 | 48 ft | 9 kts | 136° |
| 2026-04-24 19:53 | 53.62934 | 10.00248 | 48 ft | 2 kts | 110° |
| 2026-04-24 19:53 | 53.62929 | 10.00277 | 48 ft | 0 kts | 108° |
| 2026-04-24 19:54 | 53.62928 | 10.00278 | 48 ft | 0 kts | 108° |
| 2026-04-24 19:54 | 53.62928 | 10.00280 | 48 ft | 1 kts | 105° |
| 2026-04-24 19:55 | 53.62927 | 10.00285 | 48 ft | 2 kts | 105° |
| 2026-04-24 19:55 | 53.62926 | 10.00291 | 48 ft | 0 kts | 105° |